Madero, Texas
Current Conditions -  °F | °C
As of 6:38 AM on Saturday 25 Oct 2014 (Local Time) from KMFE Reporting Station
Haze Haze  
Wind Chill: 64°   Ceiling: Unl
Heat Index: 64°   Visibility: 2.5mi
Dew Point: 63°   Wind: 0mph
Humidity: 94%   Direction: NA
Pressure: 30.14"   Gusts: NA
Location:  26.2167°N, 98.325°W
Report Text: KMFE 251138Z 00000KT 2 1/2SM BR CLR 18/17 A3014 RMK AO2
Loading
Personal Weather Stations






























Interactive Weather Map
Tropical Storm Tracking
New forecast layout! Learn more

10-Day Weather Forecast

Advertisements
Track Severe Weather on mobile